Time;durP1;ratioP1;P1;durP2;ratioP2;P2;SDS_P1;SDS_P2;PMS_P1;PMS_P2;Temp;Humidity;BMP_temperature;BMP_pressure;BME280_temperature;BME280_humidity;BME280_pressure;Samples;Min_cycle;Max_cycle;Signal;HPM_P1;HPM_P2
2022/01/29 00:00:49;;;;;;;19.17;4.47;;;;;;;3.48;84.68;100288.63;5049016;28;20105;-78
2022/01/29 00:03:15;;;;;;;18.30;3.30;;;;;;;3.43;84.68;100278.28;5067096;28;20047;-80
2022/01/29 00:05:40;;;;;;;17.17;3.72;;;;;;;3.48;85.01;100278.38;5066577;28;20389;-79
2022/01/29 00:08:06;;;;;;;20.63;3.60;;;;;;;3.38;85.04;100240.53;5048840;28;20021;-76
2022/01/29 00:10:31;;;;;;;23.55;2.88;;;;;;;3.24;85.34;100230.00;5066769;28;20158;-77
2022/01/29 00:12:57;;;;;;;21.52;3.72;;;;;;;3.39;85.55;100235.41;5066958;28;20055;-77
2022/01/29 00:15:23;;;;;;;25.90;4.18;;;;;;;3.29;85.92;100221.53;5066473;28;20029;-77
2022/01/29 00:17:48;;;;;;;17.17;3.50;;;;;;;3.37;85.96;100229.38;5066916;28;20028;-77
2022/01/29 00:20:14;;;;;;;11.90;3.00;;;;;;;3.41;86.50;100227.75;5066569;28;20023;-78
2022/01/29 00:22:40;;;;;;;10.60;2.50;;;;;;;3.37;86.50;100218.28;5066749;28;20021;-79
2022/01/29 00:25:07;;;;;;;15.80;3.22;;;;;;;3.30;86.68;100148.00;5066501;28;20025;-79
2022/01/29 00:27:34;;;;;;;14.52;2.60;;;;;;;3.39;86.87;100178.97;5066936;28;20017;-77
2022/01/29 00:30:06;;;;;;;14.82;2.17;;;;;;;3.30;86.70;100155.72;5066455;28;20025;-75
2022/01/29 00:32:31;;;;;;;30.75;5.07;;;;;;;3.40;87.15;100175.56;5066818;28;20032;-77
2022/01/29 00:34:56;;;;;;;19.75;2.83;;;;;;;3.37;87.16;100154.97;5048277;28;20033;-77
2022/01/29 00:37:22;;;;;;;12.60;2.28;;;;;;;3.39;87.33;100143.03;5048057;28;20041;-78
2022/01/29 00:39:47;;;;;;;6.50;1.85;;;;;;;3.34;87.51;100104.47;5066526;28;20055;-78
2022/01/29 00:42:13;;;;;;;6.93;1.52;;;;;;;3.35;87.91;100124.13;5066666;28;20032;-78
2022/01/29 00:44:39;;;;;;;16.60;3.25;;;;;;;3.36;87.84;100109.63;5066365;28;20028;-78
2022/01/29 00:47:04;;;;;;;16.98;3.40;;;;;;;3.38;87.81;100097.69;5066750;28;20017;-78
2022/01/29 00:49:29;;;;;;;15.80;2.75;;;;;;;3.38;87.92;100095.13;5066134;28;20053;-79
2022/01/29 00:51:55;;;;;;;7.78;2.40;;;;;;;3.32;88.06;100080.47;5066639;28;20025;-76
2022/01/29 00:54:20;;;;;;;21.55;3.50;;;;;;;3.35;88.16;100077.94;5048090;28;20021;-78
2022/01/29 00:56:46;;;;;;;19.30;1.92;;;;;;;3.22;88.51;100066.66;5066234;28;20116;-79
2022/01/29 00:59:11;;;;;;;13.73;2.83;;;;;;;3.30;88.57;100073.59;5066509;28;20032;-77
2022/01/29 01:01:36;;;;;;;12.48;2.47;;;;;;;3.27;88.76;100055.59;5066204;28;20032;-76
2022/01/29 01:04:02;;;;;;;13.48;2.53;;;;;;;3.34;88.75;100055.69;5047999;28;20032;-78
2022/01/29 01:06:28;;;;;;;11.50;4.20;;;;;;;3.13;88.96;100010.03;5065695;28;20017;-78
2022/01/29 01:08:53;;;;;;;21.98;3.88;;;;;;;3.34;89.03;100030.03;5066084;28;20051;-78
2022/01/29 01:11:18;;;;;;;13.40;2.53;;;;;;;3.32;88.74;100013.75;5048048;28;20056;-76
2022/01/29 01:13:44;;;;;;;12.65;2.83;;;;;;;3.38;88.97;100020.69;5048031;28;20028;-80
2022/01/29 01:16:09;;;;;;;25.75;3.42;;;;;;;3.34;88.97;100000.94;5065444;28;20499;-80
2022/01/29 01:18:34;;;;;;;29.80;3.05;;;;;;;3.37;89.22;100002.72;5065764;28;20021;-78
2022/01/29 01:21:00;;;;;;;14.32;2.60;;;;;;;3.32;89.32;99974.41;5065598;28;20021;-77
2022/01/29 01:23:25;;;;;;;32.10;4.35;;;;;;;3.39;89.55;99989.06;5066063;28;20718;-76
2022/01/29 01:25:51;;;;;;;22.08;3.15;;;;;;;3.38;89.68;99973.63;5047551;28;20020;-75
2022/01/29 01:28:16;;;;;;;7.22;2.28;;;;;;;3.41;89.93;99977.13;5065945;28;20028;-75
2022/01/29 01:30:42;;;;;;;22.30;4.03;;;;;;;3.31;89.95;99941.88;5065657;28;20017;-75
2022/01/29 01:33:08;;;;;;;13.55;2.50;;;;;;;3.45;89.81;99954.94;5065815;28;20028;-77
2022/01/29 01:35:40;;;;;;;21.83;3.40;;;;;;;3.43;90.10;99946.34;5065255;28;20521;-76
2022/01/29 01:40:31;;;;;;;11.55;3.65;;;;;;;3.56;90.21;99930.25;5065607;28;20025;-77
2022/01/29 01:43:00;;;;;;;9.88;3.50;;;;;;;3.57;90.34;99924.28;5065549;28;20433;-77
2022/01/29 01:45:28;;;;;;;21.48;3.72;;;;;;;3.56;90.54;99899.44;5065432;28;20028;-77
2022/01/29 01:47:55;;;;;;;10.85;2.75;;;;;;;3.62;90.39;99890.09;5065748;28;20029;-78
2022/01/29 01:50:21;;;;;;;22.23;3.90;;;;;;;3.61;90.81;99878.97;5047620;28;20021;-77
2022/01/29 01:52:48;;;;;;;22.23;4.00;;;;;;;3.69;90.67;99876.50;5066355;28;20021;-77
2022/01/29 01:55:14;;;;;;;22.17;4.60;;;;;;;3.67;90.53;99863.66;5065131;28;20021;-78
2022/01/29 01:57:39;;;;;;;23.60;4.63;;;;;;;3.68;90.63;99846.53;5047452;28;20028;-79
2022/01/29 02:00:06;;;;;;;15.80;5.32;;;;;;;3.74;90.62;99845.75;5065715;28;20044;-81
2022/01/29 02:02:31;;;;;;;15.23;2.67;;;;;;;3.65;90.67;99814.00;5065579;28;20076;-81
2022/01/29 02:04:57;;;;;;;10.13;2.65;;;;;;;3.79;90.63;99808.13;5064928;28;20028;-81
2022/01/29 02:07:22;;;;;;;23.58;4.15;;;;;;;3.68;90.83;99770.38;5066286;28;20017;-80
2022/01/29 02:09:48;;;;;;;30.13;3.75;;;;;;;3.82;90.88;99788.47;5065004;28;20036;-81
2022/01/29 02:12:14;;;;;;;17.63;5.25;;;;;;;3.74;90.70;99777.25;5064891;28;20031;-78
2022/01/29 02:14:40;;;;;;;20.20;4.43;;;;;;;3.78;90.82;99780.72;5064553;28;20021;-80
2022/01/29 02:17:07;;;;;;;21.00;3.05;;;;;;;3.84;90.74;99770.50;5064849;28;20120;-80
2022/01/29 02:19:33;;;;;;;22.40;4.32;;;;;;;3.88;90.88;99782.56;5064472;28;20017;-79
2022/01/29 02:21:59;;;;;;;11.73;2.30;;;;;;;3.75;90.76;99752.44;5064448;28;20025;-78
2022/01/29 02:24:24;;;;;;;21.67;5.13;;;;;;;3.84;90.64;99745.69;5064628;28;20032;-79
2022/01/29 02:26:50;;;;;;;25.05;4.40;;;;;;;3.93;90.82;99751.78;5064488;28;20028;-76
2022/01/29 02:29:16;;;;;;;23.38;4.70;;;;;;;3.93;90.88;99744.91;5064391;28;20032;-78
2022/01/29 02:31:50;;;;;;;24.13;3.50;;;;;;;3.92;90.69;99724.34;5046290;28;20021;-77
2022/01/29 02:34:16;;;;;;;18.60;2.85;;;;;;;3.96;90.65;99734.66;5064058;28;20021;-75
2022/01/29 02:36:42;;;;;;;16.50;3.00;;;;;;;3.83;90.75;99696.91;5042373;28;20053;-77
2022/01/29 02:39:13;;;;;;;17.23;4.50;;;;;;;3.91;91.02;99704.66;5044190;28;20148;-76
2022/01/29 02:41:44;;;;;;;17.73;3.63;;;;;;;3.92;91.15;99699.53;5044218;28;20029;-76
2022/01/29 02:44:14;;;;;;;18.08;3.78;;;;;;;3.82;91.23;99683.19;5044175;28;20146;-73
2022/01/29 02:46:49;;;;;;;18.25;4.07;;;;;;;3.84;91.52;99678.06;5043941;28;20018;-74
2022/01/29 02:49:24;;;;;;;19.02;3.90;;;;;;;3.79;91.46;99666.88;5043199;28;20289;-74
2022/01/29 02:51:54;;;;;;;4.22;1.95;;;;;;;3.89;91.89;99667.81;5043967;28;20085;-77
2022/01/29 02:54:20;;;;;;;29.92;6.25;;;;;;;3.93;92.11;99656.75;5043990;28;20025;-76
2022/01/29 02:56:46;;;;;;;12.57;2.63;;;;;;;3.92;91.86;99642.16;5043861;28;20028;-75
2022/01/29 02:59:12;;;;;;;11.05;3.47;;;;;;;3.99;91.89;99653.34;5044016;28;20029;-75
2022/01/29 03:01:38;;;;;;;17.40;4.50;;;;;;;4.00;91.72;99649.91;5042568;28;20021;-76
2022/01/29 03:04:04;;;;;;;13.32;3.85;;;;;;;3.92;91.99;99627.63;5042451;28;20026;-76
2022/01/29 03:06:30;;;;;;;18.40;3.92;;;;;;;3.89;92.25;99614.75;5043602;28;20489;-76
2022/01/29 03:08:56;;;;;;;11.98;2.78;;;;;;;3.83;92.20;99599.31;5043639;28;20039;-75
2022/01/29 03:11:22;;;;;;;21.05;3.78;;;;;;;3.92;92.46;99612.22;5043618;28;20065;-75
2022/01/29 03:13:48;;;;;;;23.40;5.47;;;;;;;3.91;93.03;99581.38;5043552;28;20074;-75
2022/01/29 03:16:14;;;;;;;18.05;4.38;;;;;;;4.01;92.77;99600.28;5043384;28;20052;-75
2022/01/29 03:18:40;;;;;;;7.63;2.63;;;;;;;4.05;92.80;99591.72;5041596;28;20060;-77
2022/01/29 03:21:05;;;;;;;31.15;5.30;;;;;;;4.06;93.00;99578.03;5043337;28;20025;-74
2022/01/29 03:23:31;;;;;;;10.50;2.83;;;;;;;4.07;93.07;99567.75;5042115;28;20039;-75
2022/01/29 03:25:56;;;;;;;16.05;4.25;;;;;;;4.10;93.21;99548.94;5043120;28;20054;-75
2022/01/29 03:28:21;;;;;;;18.27;3.47;;;;;;;4.13;93.00;99536.13;5042098;28;20079;-72
2022/01/29 03:30:47;;;;;;;18.48;5.45;;;;;;;4.12;93.19;99511.25;5043479;28;20474;-75
2022/01/29 03:33:12;;;;;;;16.20;3.42;;;;;;;4.13;93.33;99518.13;5042185;28;20104;-74
2022/01/29 03:35:38;;;;;;;11.02;2.40;;;;;;;4.05;93.56;99491.56;5043100;28;20056;-76
2022/01/29 03:38:04;;;;;;;11.75;3.53;;;;;;;4.09;93.77;99501.84;5059228;28;20045;-73
2022/01/29 03:40:32;;;;;;;9.93;2.90;;;;;;;4.10;93.99;99487.28;5045298;28;20070;-74
2022/01/29 03:43:10;;;;;;;13.27;2.80;;;;;;;4.12;93.90;99484.72;5063322;28;20031;-74
2022/01/29 03:45:36;;;;;;;10.25;2.70;;;;;;;4.05;94.15;99474.44;5063181;28;20017;-73
2022/01/29 03:48:02;;;;;;;15.88;4.05;;;;;;;4.10;94.50;99482.16;5063341;28;20039;-73
2022/01/29 03:50:27;;;;;;;12.93;4.63;;;;;;;4.10;94.49;99466.75;5062965;28;20108;-72
2022/01/29 03:52:53;;;;;;;9.50;3.05;;;;;;;4.12;94.72;99449.59;5063004;28;20083;-71
2022/01/29 03:55:18;;;;;;;19.33;4.30;;;;;;;4.07;94.80;99443.63;5062737;28;20029;-73
2022/01/29 03:57:44;;;;;;;15.00;3.22;;;;;;;4.09;94.84;99431.63;5063063;28;20025;-72
2022/01/29 04:00:10;;;;;;;9.77;3.13;;;;;;;4.09;94.81;99406.78;5045088;28;20025;-73
2022/01/29 04:02:36;;;;;;;13.15;3.05;;;;;;;4.12;95.06;99418.78;5063134;28;20212;-71
2022/01/29 04:05:01;;;;;;;13.50;4.70;;;;;;;4.19;95.29;99427.38;5062792;28;20036;-71
2022/01/29 04:07:27;;;;;;;17.05;4.85;;;;;;;4.24;95.17;99424.81;5045195;28;20013;-71
2022/01/29 04:09:53;;;;;;;12.10;3.70;;;;;;;4.27;95.18;99415.41;5062861;28;20144;-71
2022/01/29 04:12:19;;;;;;;18.17;4.10;;;;;;;4.27;95.38;99410.25;5063061;28;20033;-71
2022/01/29 04:14:44;;;;;;;18.70;4.15;;;;;;;4.28;95.32;99408.56;5063077;28;20025;-71
2022/01/29 04:17:11;;;;;;;27.40;4.63;;;;;;;4.21;95.34;99376.84;5063073;28;20039;-71
2022/01/29 04:19:37;;;;;;;14.30;3.33;;;;;;;4.29;95.37;99389.69;5044812;28;20032;-71
2022/01/29 04:22:06;;;;;;;21.00;4.88;;;;;;;4.33;95.46;99384.56;5062729;28;20082;-70
2022/01/29 04:24:33;;;;;;;8.70;2.53;;;;;;;4.40;95.41;99377.72;5063010;28;20033;-70
2022/01/29 04:26:59;;;;;;;36.30;6.15;;;;;;;4.41;95.29;99382.00;5062801;28;20036;-70
2022/01/29 04:29:27;;;;;;;27.27;5.13;;;;;;;4.43;95.48;99379.41;5062793;28;20075;-69
2022/01/29 04:32:06;;;;;;;13.90;3.85;;;;;;;4.45;95.64;99363.16;5066386;28;20025;-70
2022/01/29 04:34:31;;;;;;;22.13;7.53;;;;;;;4.47;95.82;99364.00;5066880;28;20473;-69
2022/01/29 04:36:57;;;;;;;22.05;5.85;;;;;;;4.51;95.77;99352.00;5048246;28;20052;-69
2022/01/29 04:39:22;;;;;;;24.25;5.28;;;;;;;4.50;95.55;99358.03;5066495;28;20037;-70
2022/01/29 04:41:47;;;;;;;37.78;6.50;;;;;;;4.53;95.94;99342.59;5066702;28;20025;-70
2022/01/29 04:44:13;;;;;;;23.65;3.80;;;;;;;4.50;95.71;99318.59;5066408;28;20104;-70
2022/01/29 04:46:38;;;;;;;28.10;6.05;;;;;;;4.51;95.93;99310.00;5066646;28;20453;-69
2022/01/29 04:49:04;;;;;;;13.27;4.32;;;;;;;4.59;95.87;99318.59;5066429;28;20631;-70
2022/01/29 04:51:29;;;;;;;53.03;7.13;;;;;;;4.64;96.00;99301.44;5066311;28;20021;-70
2022/01/29 04:53:54;;;;;;;21.98;6.00;;;;;;;4.67;95.57;99296.28;5066272;28;20131;-70
2022/01/29 04:56:19;;;;;;;23.02;4.85;;;;;;;4.69;95.87;99279.16;5066181;28;20025;-70
2022/01/29 04:58:45;;;;;;;66.20;9.77;;;;;;;4.70;95.78;99262.84;5066246;28;20021;-69
2022/01/29 05:01:10;;;;;;;20.33;4.72;;;;;;;4.73;95.80;99241.41;5048374;28;20021;-70
2022/01/29 05:03:36;;;;;;;23.30;5.65;;;;;;;4.66;95.71;99235.47;5066221;28;20052;-69
2022/01/29 05:06:03;;;;;;;29.17;6.45;;;;;;;4.74;95.78;99247.41;5047723;28;20477;-69
2022/01/29 05:08:29;;;;;;;36.83;6.85;;;;;;;4.77;95.72;99234.56;5066015;28;20025;-70
2022/01/29 05:10:54;;;;;;;8.60;2.20;;;;;;;4.76;95.59;99220.84;5065958;28;20035;-72
2022/01/29 05:13:24;;;;;;;45.05;5.75;;;;;;;4.70;95.49;99182.28;5065924;28;20428;-72
2022/01/29 05:27:02;;;;;;;22.45;3.47;;;;;;;4.66;96.24;99183.19;5065872;28;20051;-72
2022/01/29 05:29:31;;;;;;;158.65;13.18;;;;;;;4.62;96.39;99176.34;5065695;28;20035;-70
2022/01/29 05:31:57;;;;;;;62.75;7.63;;;;;;;4.70;96.62;99175.44;5065680;28;20025;-70
2022/01/29 05:34:22;;;;;;;119.95;14.98;;;;;;;4.70;96.68;99169.44;5065404;28;20024;-69
2022/01/29 05:36:49;;;;;;;55.03;5.63;;;;;;;4.73;96.44;99171.16;5065105;28;20045;-71
2022/01/29 05:39:15;;;;;;;93.93;7.78;;;;;;;4.73;96.60;99146.28;5065518;28;20032;-72
2022/01/29 05:41:41;;;;;;;141.20;12.73;;;;;;;4.76;96.74;99160.84;5065374;28;20082;-70
2022/01/29 05:44:06;;;;;;;140.25;12.73;;;;;;;4.76;96.63;99142.84;5065379;28;20112;-70
2022/01/29 05:46:32;;;;;;;92.55;10.52;;;;;;;4.81;96.43;99146.25;5065311;28;20017;-70
2022/01/29 05:48:57;;;;;;;203.50;15.73;;;;;;;4.84;96.27;99143.66;5047287;28;20024;-70
2022/01/29 05:51:23;;;;;;;195.13;15.82;;;;;;;4.81;96.14;99105.09;5047097;28;20089;-72
2022/01/29 05:53:48;;;;;;;175.82;17.60;;;;;;;4.72;96.40;99111.16;5065178;28;20028;-71
2022/01/29 05:56:13;;;;;;;145.50;12.52;;;;;;;4.86;96.55;99115.38;5064909;28;20029;-71
2022/01/29 05:58:39;;;;;;;178.23;14.48;;;;;;;4.79;96.56;99081.13;5064775;28;20044;-71
2022/01/29 06:01:04;;;;;;;162.13;13.90;;;;;;;4.86;96.48;99092.25;5046852;28;20081;-72
2022/01/29 06:03:30;;;;;;;214.18;16.63;;;;;;;4.84;96.34;99067.38;5046827;28;20025;-71
2022/01/29 06:05:55;;;;;;;215.90;18.35;;;;;;;4.92;96.38;99062.16;5064374;28;20084;-73
2022/01/29 06:08:21;;;;;;;191.25;20.70;;;;;;;4.95;96.24;99067.28;5064749;28;20449;-72
2022/01/29 06:10:47;;;;;;;271.58;21.33;;;;;;;4.99;96.06;99075.84;5064618;28;20052;-72
2022/01/29 06:13:14;;;;;;;260.23;18.95;;;;;;;5.00;95.97;99064.69;5064491;28;20060;-72
2022/01/29 06:15:45;;;;;;;139.80;13.18;;;;;;;5.03;96.08;99067.22;5064296;28;20132;-71
2022/01/29 06:18:13;;;;;;;148.50;13.52;;;;;;;4.99;95.86;99050.13;5064414;28;20028;-73
2022/01/29 06:20:40;;;;;;;171.10;12.98;;;;;;;5.01;96.11;99032.09;5064173;28;20029;-73
2022/01/29 06:23:06;;;;;;;212.82;20.67;;;;;;;5.12;95.89;99048.31;5046394;28;20284;-72
2022/01/29 06:25:31;;;;;;;72.03;11.10;;;;;;;5.14;96.09;99036.31;5064206;28;20021;-71
2022/01/29 06:27:56;;;;;;;198.13;24.67;;;;;;;5.16;96.04;99020.84;5064157;28;20036;-71
2022/01/29 06:30:22;;;;;;;287.27;27.70;;;;;;;5.18;95.88;99026.81;5064301;28;20025;-72
2022/01/29 06:32:47;;;;;;;113.40;15.68;;;;;;;5.07;96.04;99007.19;5064373;28;20056;-72
2022/01/29 06:35:13;;;;;;;162.95;18.73;;;;;;;5.21;95.85;99016.50;5064174;28;20060;-73
2022/01/29 06:37:38;;;;;;;163.60;15.07;;;;;;;5.22;95.79;99007.94;5063977;28;20036;-71
2022/01/29 06:40:05;;;;;;;158.77;12.95;;;;;;;5.25;96.04;99007.03;5064173;28;20090;-72
2022/01/29 06:42:31;;;;;;;160.45;14.80;;;;;;;5.26;95.82;99008.72;5045904;28;20013;-71
2022/01/29 06:44:56;;;;;;;176.93;16.73;;;;;;;5.27;95.91;99011.28;5063840;28;20085;-72
2022/01/29 06:47:21;;;;;;;246.13;24.95;;;;;;;5.27;95.97;99007.88;5063762;28;20497;-72
2022/01/29 06:49:47;;;;;;;137.13;13.55;;;;;;;5.28;95.76;99007.00;5063579;28;20060;-71
2022/01/29 06:52:12;;;;;;;202.60;21.17;;;;;;;5.26;95.78;98994.16;5045350;28;20273;-70
2022/01/29 06:54:41;;;;;;;201.77;20.50;;;;;;;5.27;95.85;98985.56;5045224;28;20116;-71
2022/01/29 06:57:09;;;;;;;201.30;18.75;;;;;;;5.23;95.86;98967.59;5063469;28;20055;-71
2022/01/29 06:59:35;;;;;;;214.45;16.13;;;;;;;5.30;95.90;98969.25;5063507;28;20052;-71
2022/01/29 07:02:00;;;;;;;233.60;17.58;;;;;;;5.29;95.89;98958.09;5045291;28;20021;-70
2022/01/29 07:04:26;;;;;;;239.25;24.92;;;;;;;5.17;95.92;98945.34;5063483;28;20023;-69
2022/01/29 07:06:51;;;;;;;292.45;26.15;;;;;;;5.32;96.02;98962.34;5063493;28;20031;-70
2022/01/29 07:09:16;;;;;;;190.05;15.45;;;;;;;5.33;96.23;98957.22;5063393;28;20028;-68
2022/01/29 07:11:43;;;;;;;204.10;21.33;;;;;;;5.37;96.09;98964.91;5045129;28;20077;-68
2022/01/29 07:14:15;;;;;;;404.08;37.83;;;;;;;5.41;96.17;98962.28;5063179;28;20032;-69
2022/01/29 07:16:40;;;;;;;228.88;20.67;;;;;;;5.43;96.14;98945.06;5044901;28;20050;-69
2022/01/29 07:19:06;;;;;;;245.35;22.75;;;;;;;5.44;96.24;98935.66;5063132;28;20057;-68
2022/01/29 07:21:31;;;;;;;244.38;21.40;;;;;;;5.45;96.29;98921.91;5062898;28;20028;-69
2022/01/29 07:23:56;;;;;;;208.32;21.10;;;;;;;5.56;96.34;98917.47;5063264;28;20032;-69
2022/01/29 07:26:22;;;;;;;194.45;22.23;;;;;;;5.52;96.19;98907.25;5063037;28;20017;-69
2022/01/29 07:28:47;;;;;;;188.00;17.70;;;;;;;5.57;96.28;98905.47;5063388;28;20025;-68
2022/01/29 07:31:13;;;;;;;136.45;11.90;;;;;;;5.66;96.36;98894.19;5044929;28;20025;-69
2022/01/29 07:33:38;;;;;;;145.85;15.27;;;;;;;5.68;96.46;98893.31;5044938;28;20101;-70
2022/01/29 07:36:04;;;;;;;22.05;4.78;;;;;;;5.65;96.53;98872.75;5062773;28;20044;-70
2022/01/29 07:38:29;;;;;;;22.25;4.88;;;;;;;5.80;96.59;98883.69;5062661;28;20037;-68
2022/01/29 07:40:55;;;;;;;23.17;5.68;;;;;;;5.84;96.66;98862.19;5062959;28;20082;-68
2022/01/29 07:43:20;;;;;;;40.63;5.07;;;;;;;5.90;96.73;98861.25;5062951;28;20017;-69
2022/01/29 07:45:45;;;;;;;37.85;5.35;;;;;;;5.92;96.84;98847.50;5045034;28;20465;-69
2022/01/29 07:48:11;;;;;;;48.80;6.72;;;;;;;5.98;96.79;98855.97;5062817;28;20021;-69
2022/01/29 07:50:37;;;;;;;53.72;9.13;;;;;;;5.94;96.70;98829.44;5044625;28;20044;-69
2022/01/29 07:53:02;;;;;;;67.32;10.43;;;;;;;6.06;96.67;98825.84;5062796;28;20056;-69
2022/01/29 07:55:31;;;;;;;69.50;9.85;;;;;;;6.10;96.83;98827.53;5062830;28;20045;-70
2022/01/29 07:58:01;;;;;;;60.28;9.70;;;;;;;6.10;96.83;98817.22;5062796;28;20088;-69
2022/01/29 08:00:28;;;;;;;69.00;10.00;;;;;;;6.01;96.84;98801.84;5062667;28;20024;-69
2022/01/29 08:02:53;;;;;;;112.18;11.60;;;;;;;6.04;96.65;98791.47;5062794;28;20366;-69
2022/01/29 08:05:18;;;;;;;114.63;11.85;;;;;;;6.09;96.62;98792.31;5064013;28;20108;-71
2022/01/29 08:07:44;;;;;;;141.93;12.25;;;;;;;6.13;96.60;98801.69;5048430;28;20028;-70
2022/01/29 08:10:09;;;;;;;93.75;11.20;;;;;;;6.04;96.38;98782.06;5048508;28;20028;-70
2022/01/29 08:12:35;;;;;;;105.70;8.57;;;;;;;6.10;96.35;98786.28;5066797;28;20102;-70
2022/01/29 08:15:02;;;;;;;129.57;11.48;;;;;;;6.08;96.37;98764.84;5048762;28;20056;-69
2022/01/29 08:17:28;;;;;;;113.90;10.63;;;;;;;6.07;96.38;98745.13;5066359;28;20048;-70
2022/01/29 08:19:54;;;;;;;112.00;14.02;;;;;;;5.97;96.39;98733.22;5066753;28;20048;-69
2022/01/29 08:22:19;;;;;;;143.07;15.57;;;;;;;6.04;96.47;98730.53;5066331;28;20112;-70
2022/01/29 08:24:45;;;;;;;76.00;7.20;;;;;;;6.06;96.75;98733.09;5048675;28;20357;-69
2022/01/29 08:27:10;;;;;;;77.20;7.50;;;;;;;6.06;96.72;98727.94;5066273;28;20084;-71
2022/01/29 08:29:37;;;;;;;66.47;9.13;;;;;;;5.98;96.59;98710.00;5066306;28;20079;-72
2022/01/29 08:32:04;;;;;;;114.95;10.45;;;;;;;6.09;96.75;98707.28;5066515;28;20021;-70
2022/01/29 08:34:29;;;;;;;111.03;8.85;;;;;;;6.10;96.80;98710.72;5066325;28;20209;-70
2022/01/29 08:36:58;;;;;;;69.65;7.80;;;;;;;6.11;96.92;98695.22;5047895;28;20040;-68
2022/01/29 08:39:24;;;;;;;39.88;5.75;;;;;;;6.12;96.92;98691.75;5066344;28;20043;-68
2022/01/29 08:41:50;;;;;;;72.88;6.18;;;;;;;6.16;97.08;98683.13;5065905;28;20017;-70
2022/01/29 08:44:16;;;;;;;40.70;4.38;;;;;;;6.13;97.07;98685.75;5065976;28;20025;-69
2022/01/29 08:46:41;;;;;;;37.72;3.25;;;;;;;6.24;97.25;98674.38;5047911;28;20020;-70
2022/01/29 08:49:06;;;;;;;26.60;3.15;;;;;;;6.27;97.17;98676.91;5065890;28;20025;-69
2022/01/29 08:51:32;;;;;;;31.73;2.80;;;;;;;6.29;97.27;98667.41;5065507;28;20036;-70
2022/01/29 08:53:58;;;;;;;21.67;2.25;;;;;;;6.26;97.48;98659.75;5065819;28;20024;-72
2022/01/29 08:56:23;;;;;;;17.60;2.08;;;;;;;6.38;97.31;98668.97;5065665;28;20492;-71
2022/01/29 08:58:48;;;;;;;11.23;1.88;;;;;;;6.42;97.53;98673.19;5065684;28;20043;-69
2022/01/29 09:01:14;;;;;;;7.55;1.50;;;;;;;6.44;97.56;98654.22;5047675;28;20017;-69
2022/01/29 09:03:39;;;;;;;6.03;1.67;;;;;;;6.47;97.38;98649.91;5047799;28;20492;-70
2022/01/29 09:06:06;;;;;;;19.80;2.70;;;;;;;6.48;97.45;98659.31;5047227;28;20028;-69
2022/01/29 09:08:32;;;;;;;11.18;3.05;;;;;;;6.50;97.52;98649.84;5047687;28;20045;-69
2022/01/29 09:10:58;;;;;;;7.80;1.73;;;;;;;6.51;97.54;98654.09;5065576;28;20032;-70
2022/01/29 09:13:27;;;;;;;9.38;2.00;;;;;;;6.47;97.38;98626.69;5065724;28;20025;-71
2022/01/29 09:15:52;;;;;;;13.82;2.92;;;;;;;6.53;97.65;98634.31;5064639;28;20036;-69
2022/01/29 09:18:18;;;;;;;14.38;2.10;;;;;;;6.55;97.40;98614.50;5047383;28;20029;-70
2022/01/29 09:20:43;;;;;;;19.60;2.45;;;;;;;6.40;97.52;98595.91;5065414;28;20505;-71
2022/01/29 09:23:09;;;;;;;5.07;1.77;;;;;;;6.47;97.30;98599.16;5065453;28;20255;-69
2022/01/29 09:25:38;;;;;;;9.65;2.00;;;;;;;6.49;97.22;98604.28;5065197;28;20029;-69
2022/01/29 09:28:05;;;;;;;7.63;1.67;;;;;;;6.47;97.36;98586.28;5065357;28;20028;-70
2022/01/29 09:30:31;;;;;;;10.68;2.08;;;;;;;6.44;97.45;98582.06;5065265;28;20044;-71
2022/01/29 09:32:56;;;;;;;16.15;3.63;;;;;;;6.41;97.35;98584.69;5065431;28;20021;-72
2022/01/29 09:35:22;;;;;;;14.23;1.73;;;;;;;6.38;97.62;98558.97;5046912;28;20021;-71
2022/01/29 09:37:47;;;;;;;8.93;2.05;;;;;;;6.43;97.64;98562.31;5047089;28;20083;-72
2022/01/29 09:40:14;;;;;;;7.88;1.90;;;;;;;6.31;97.50;98557.44;5047130;28;20032;-72
2022/01/29 09:42:40;;;;;;;7.30;1.90;;;;;;;6.46;97.49;98561.41;5047277;28;20059;-71
2022/01/29 09:45:08;;;;;;;15.95;2.05;;;;;;;6.38;97.49;98543.53;5065124;28;20068;-71
2022/01/29 09:47:35;;;;;;;12.55;1.85;;;;;;;6.47;97.77;98544.22;5065123;28;20039;-74
2022/01/29 09:50:01;;;;;;;8.10;1.70;;;;;;;6.47;97.71;98542.47;5065047;28;20025;-74
2022/01/29 09:52:26;;;;;;;9.10;1.77;;;;;;;6.50;97.63;98536.41;5065237;28;20108;-72
2022/01/29 09:54:51;;;;;;;7.97;1.60;;;;;;;6.52;97.85;98529.47;5065211;28;20013;-74
2022/01/29 09:57:17;;;;;;;11.23;1.77;;;;;;;6.55;97.76;98516.53;5064837;28;20367;-72
2022/01/29 09:59:42;;;;;;;11.20;1.90;;;;;;;6.54;97.72;98514.81;5046889;28;20103;-71
2022/01/29 10:02:15;;;;;;;6.97;1.48;;;;;;;6.53;97.81;98506.22;5047569;28;20089;-77
2022/01/29 10:04:48;;;;;;;8.23;1.50;;;;;;;6.50;97.80;98501.13;5064895;28;20021;-74
2022/01/29 10:07:16;;;;;;;8.18;1.50;;;;;;;6.55;97.99;98495.91;5064561;28;20044;-71
2022/01/29 10:09:42;;;;;;;15.68;3.22;;;;;;;6.56;97.94;98495.88;5064551;28;20097;-72
2022/01/29 10:12:21;;;;;;;15.75;2.50;;;;;;;6.57;97.95;98488.97;5064293;28;20029;-71
2022/01/29 10:14:57;;;;;;;15.35;2.70;;;;;;;6.57;97.89;98489.81;5046599;28;20067;-71
2022/01/29 10:17:48;;;;;;;31.80;3.58;;;;;;;6.57;98.11;98474.34;5064106;28;20032;-71
2022/01/29 10:20:20;;;;;;;28.33;4.18;;;;;;;6.56;97.83;98467.50;5046011;28;20033;-74
2022/01/29 10:22:54;;;;;;;28.25;3.65;;;;;;;6.57;97.84;98463.19;5064639;28;20096;-72
2022/01/29 10:25:21;;;;;;;18.65;4.22;;;;;;;6.59;97.89;98453.69;5063981;28;20104;-71
2022/01/29 10:28:06;;;;;;;19.58;4.10;;;;;;;6.59;98.12;98445.09;5045231;28;20049;-72
2022/01/29 10:30:34;;;;;;;28.35;3.63;;;;;;;6.53;97.96;98431.47;5064196;28;20023;-72
2022/01/29 10:33:21;;;;;;;36.65;4.60;;;;;;;6.56;97.94;98433.13;5064120;28;20033;-73
2022/01/29 10:35:52;;;;;;;40.30;5.68;;;;;;;6.53;97.80;98433.22;5045489;28;20104;-73
2022/01/29 10:38:23;;;;;;;100.50;11.73;;;;;;;6.49;97.75;98423.84;5045677;28;20369;-74
2022/01/29 10:41:10;;;;;;;46.83;6.03;;;;;;;6.47;97.75;98398.09;5063865;28;20052;-73
2022/01/29 10:43:53;;;;;;;90.10;9.23;;;;;;;6.39;97.96;98395.72;5063945;28;20105;-75
2022/01/29 10:46:29;;;;;;;110.55;13.73;;;;;;;6.43;97.99;98401.66;5045777;28;20025;-73
2022/01/29 10:48:56;;;;;;;117.75;11.25;;;;;;;6.30;97.81;98375.31;5063712;28;20029;-73
2022/01/29 10:51:22;;;;;;;140.48;13.35;;;;;;;6.26;97.62;98379.69;5063480;28;20082;-75
2022/01/29 10:53:48;;;;;;;164.13;17.30;;;;;;;6.23;97.67;98348.81;5063683;28;20072;-75
2022/01/29 10:56:13;;;;;;;191.63;19.40;;;;;;;6.12;97.45;98343.94;5063359;28;20059;-75
2022/01/29 10:58:43;;;;;;;74.45;11.27;;;;;;;6.17;97.43;98356.72;5063726;28;20033;-73
2022/01/29 11:01:22;;;;;;;85.68;9.93;;;;;;;6.14;97.73;98354.19;5063552;28;20053;-75
2022/01/29 11:03:50;;;;;;;84.18;13.48;;;;;;;6.14;97.51;98347.34;5045462;28;20053;-73
2022/01/29 11:06:22;;;;;;;74.53;10.30;;;;;;;6.13;97.81;98342.22;5063071;28;20167;-73
2022/01/29 11:08:47;;;;;;;68.78;10.10;;;;;;;6.15;97.83;98341.28;5063409;28;20102;-73
2022/01/29 11:11:14;;;;;;;81.50;12.00;;;;;;;6.17;97.82;98330.94;5063394;28;20024;-73
2022/01/29 11:13:42;;;;;;;61.00;10.57;;;;;;;6.18;97.98;98320.59;5045330;28;20025;-74
2022/01/29 11:16:08;;;;;;;71.55;13.13;;;;;;;6.22;97.96;98313.66;5063222;28;20056;-74
2022/01/29 11:18:35;;;;;;;70.70;9.63;;;;;;;6.27;98.08;98303.22;5063266;28;20389;-74
2022/01/29 11:21:01;;;;;;;79.10;11.55;;;;;;;6.26;98.15;98279.19;5063179;28;20021;-72
2022/01/29 11:23:29;;;;;;;89.00;10.90;;;;;;;6.34;98.13;98288.47;5045036;28;20025;-72
2022/01/29 11:25:56;;;;;;;63.35;10.10;;;;;;;6.36;97.96;98284.13;5063038;28;20113;-72
2022/01/29 11:28:26;;;;;;;84.45;13.20;;;;;;;6.37;98.03;98268.63;5062893;28;20021;-77
2022/01/29 11:31:11;;;;;;;79.93;13.10;;;;;;;6.40;97.95;98265.97;5063281;28;20108;-74
2022/01/29 11:33:58;;;;;;;75.50;12.90;;;;;;;6.39;98.12;98253.94;5063081;28;20017;-75
2022/01/29 11:36:48;;;;;;;51.67;8.70;;;;;;;6.40;98.05;98253.06;5062310;28;20028;-74
2022/01/29 11:39:20;;;;;;;63.03;11.55;;;;;;;6.41;98.11;98253.91;5062947;28;20033;-74
2022/01/29 11:42:06;;;;;;;76.57;11.43;;;;;;;6.36;98.07;98233.41;5044760;28;20029;-73